Hodgenville, Kentucky
Current Conditions -  °F | °C
As of 6:58 AM on Tuesday 27 Jan 2015 (Local Time) from KFTK Reporting Station
Overcast Overcast  
Wind Chill: 28°   Ceiling: 1600
Heat Index: 28°   Visibility: 10mi
Dew Point: 26°   Wind: 2mph
Humidity: 93%   Direction: 310°NW
Pressure: 29.93"   Gusts: NA
Location:  37.57°N, 85.74°W
Report Text: KFTK 271158Z 31002KT 10SM OVC016 M02/M03 A2993 RMK AO2A SLP145 60004 T10211031 11020 21022 53013
Loading
Personal Weather Stations






























Interactive Weather Map New forecast layout! Learn more

10-Day Weather Forecast

Advertisements
Track Severe Weather on mobile